1874 Hurricane NOT_NAMED (1874236N29292)


IBTrACS version v04r00. Visit IBTrACS website for data access.
Please direct all questions to the IBTrACS Q and A forum

Storm track - Intensity - Wind Radii - Intensity Data - Source Data - All data

Summary Information

Storm ID 1874236N29292
Start Aug 23 12Z
Max Intensity 80 kt (Aug 24 18Z)
End Aug 30 12Z
ATCF IDs
Track status Best track data.

Storm track plot

Map of storm track

Intensity plots

Map of storm track

Radial wind information

No radial wind information for this storm


Position and Intensity Table

BASIN ISO_TIME_________ NATURE LAT LON MLC WIND
degrees north degrees east kts
NA 1874-08-23 12:00:00 TS 29.00 -68.00 30
NA 15:00:00 TS 29.16 -68.16 30
NA 18:00:00 TS 29.30 -68.30 30
NA 21:00:00 TS 29.40 -68.40 37
NA 1874-08-24 00:00:00 TS 29.50 -68.50 45
NA 03:00:00 TS 29.65 -68.65 52
NA 06:00:00 TS 29.80 -68.80 60
NA 09:00:00 TS 29.90 -68.89 60
NA 12:00:00 TS 30.00 -69.00 60
NA 15:00:00 TS 30.14 -69.18 70
NA 18:00:00 TS 30.30 -69.40 80
NA 21:00:00 TS 30.45 -69.60 80
NA 1874-08-25 00:00:00 TS 30.60 -69.80 80
NA 03:00:00 TS 30.75 -70.01 75
NA 06:00:00 TS 30.90 -70.20 70
NA 09:00:00 TS 31.07 -70.34 67
NA 12:00:00 TS 31.20 -70.50 65
NA 15:00:00 TS 31.22 -70.78 62
NA 18:00:00 TS 31.20 -71.10 60
NA 21:00:00 TS 31.21 -71.40 57
NA 1874-08-26 00:00:00 TS 31.20 -71.70 55
NA 03:00:00 TS 31.16 -72.01 52
NA 06:00:00 TS 31.10 -72.30 50
NA 09:00:00 TS 31.05 -72.56 47
NA 12:00:00 TS 31.00 -72.80 45
NA 15:00:00 TS 30.95 -73.01 42
NA 18:00:00 TS 30.90 -73.20 40
NA 21:00:00 TS 30.85 -73.36 37
NA 1874-08-27 00:00:00 TS 30.80 -73.50 35
NA 03:00:00 TS 30.75 -73.65 35
NA 06:00:00 TS 30.70 -73.80 35
NA 09:00:00 TS 30.65 -73.94 32
NA 12:00:00 TS 30.60 -74.10 30
NA 15:00:00 TS 30.55 -74.30 30
NA 18:00:00 TS 30.50 -74.50 30
NA 21:00:00 TS 30.45 -74.66 30
NA 1874-08-28 00:00:00 TS 30.40 -74.80 30
NA 03:00:00 TS 30.35 -74.95 30
NA 06:00:00 TS 30.30 -75.10 30
NA 09:00:00 TS 30.23 -75.26 30
NA 12:00:00 TS 30.20 -75.40 30
NA 15:00:00 TS 30.28 -75.51 30
NA 18:00:00 TS 30.40 -75.60 30
NA 21:00:00 TS 30.48 -75.65 30
NA 1874-08-29 00:00:00 TS 30.60 -75.70 30
NA 03:00:00 TS 30.79 -75.80 30
NA 06:00:00 TS 31.00 -75.90 30
NA 09:00:00 TS 31.14 -76.03 30
NA 12:00:00 TS 31.30 -76.00 30
NA 15:00:00 TS 31.54 -75.63 30
NA 18:00:00 TS 31.80 -75.10 30
NA 21:00:00 TS 32.06 -74.65 30
NA 1874-08-30 00:00:00 TS 32.30 -74.20 30
NA 03:00:00 TS 32.51 -73.74 30
NA 06:00:00 TS 32.70 -73.30 30
NA 09:00:00 TS 32.86 -72.89 30
NA 12:00:00 TS 33.00 -72.50 30

Source Information

Agency Information
USA
TOKYO
CMA
HKO
NEWDELHI
REUNION
BOM
NADI
WELLINGTON
DS824
TD9636
TD9635
NEUMANN
MLC

All available IBTrACS Data

SEASON BASIN SUBBASIN ISO_TIME_________ NATURE LAT LON DIST2LAND LANDFALL IFLAG USA SSHS MLC LAT MLC LON MLC CLASS MLC WIND STORM SPEED STORM DIR
Year degrees north degrees east km km 1 degrees north degrees east kts kts degrees
1874 NA NA 1874-08-23 12:00:00 TS 29.00 -68.00 1005 991 _____________O -1 29.00 -68.00 TD 30 4 319
1874 NA NA 15:00:00 TS 29.16 -68.16 991 977 _____________P -1 29.16 -68.16 TD 30 4 319
1874 NA NA 18:00:00 TS 29.30 -68.30 977 962 _____________O -1 29.30 -68.30 TD 30 3 319
1874 NA NA 21:00:00 TS 29.40 -68.40 962 947 _____________P -1 29.40 -68.40 TD 37 3 319
1874 NA NA 1874-08-24 00:00:00 TS 29.50 -68.50 947 933 _____________O -1 29.50 -68.50 TS 45 3 319
1874 NA NA 03:00:00 TS 29.65 -68.65 925 903 _____________P -1 29.65 -68.65 TS 52 4 319
1874 NA NA 06:00:00 TS 29.80 -68.80 903 889 _____________O -1 29.80 -68.80 TS 60 3 320
1874 NA NA 09:00:00 TS 29.90 -68.89 889 874 _____________P -1 29.90 -68.89 TS 60 3 319
1874 NA NA 12:00:00 TS 30.00 -69.00 874 852 _____________O -1 30.00 -69.00 TS 60 4 314
1874 NA NA 15:00:00 TS 30.14 -69.18 852 823 _____________P -1 30.14 -69.18 TS 70 5 311
1874 NA NA 18:00:00 TS 30.30 -69.40 823 802 _____________O -1 30.30 -69.40 HU 80 5 311
1874 NA NA 21:00:00 TS 30.45 -69.60 802 773 _____________P -1 30.45 -69.60 HU 80 5 311
1874 NA NA 1874-08-25 00:00:00 TS 30.60 -69.80 773 751 _____________O -1 30.60 -69.80 HU 80 5 310
1874 NA NA 03:00:00 TS 30.75 -70.01 744 722 _____________P -1 30.75 -70.01 HU 75 5 311
1874 NA NA 06:00:00 TS 30.90 -70.20 722 700 _____________O -1 30.90 -70.20 HU 70 4 319
1874 NA NA 09:00:00 TS 31.07 -70.34 700 678 _____________P -1 31.07 -70.34 HU 67 4 320
1874 NA NA 12:00:00 TS 31.20 -70.50 678 657 _____________O -1 31.20 -70.50 HU 65 4 292
1874 NA NA 15:00:00 TS 31.22 -70.78 657 635 _____________P -1 31.22 -70.78 HU 62 5 270
1874 NA NA 18:00:00 TS 31.20 -71.10 635 614 _____________O -1 31.20 -71.10 TS 60 5 268
1874 NA NA 21:00:00 TS 31.21 -71.40 614 593 _____________P -1 31.21 -71.40 TS 57 5 270
1874 NA NA 1874-08-26 00:00:00 TS 31.20 -71.70 593 572 _____________O -1 31.20 -71.70 TS 55 5 265
1874 NA NA 03:00:00 TS 31.16 -72.01 572 560 _____________P -1 31.16 -72.01 TS 52 5 259
1874 NA NA 06:00:00 TS 31.10 -72.30 560 541 _____________O -1 31.10 -72.30 TS 50 5 257
1874 NA NA 09:00:00 TS 31.05 -72.56 549 537 _____________P -1 31.05 -72.56 TS 47 4 257
1874 NA NA 12:00:00 TS 31.00 -72.80 537 525 _____________O -1 31.00 -72.80 TS 45 4 255
1874 NA NA 15:00:00 TS 30.95 -73.01 534 523 _____________P -1 30.95 -73.01 TS 42 4 254
1874 NA NA 18:00:00 TS 30.90 -73.20 523 518 _____________O -1 30.90 -73.20 TS 40 3 251
1874 NA NA 21:00:00 TS 30.85 -73.36 522 517 _____________P -1 30.85 -73.36 TS 37 3 249
1874 NA NA 1874-08-27 00:00:00 TS 30.80 -73.50 517 512 _____________O -1 30.80 -73.50 TS 35 3 248
1874 NA NA 03:00:00 TS 30.75 -73.65 521 512 _____________P -1 30.75 -73.65 TS 35 3 249
1874 NA NA 06:00:00 TS 30.70 -73.80 512 507 _____________O -1 30.70 -73.80 TS 35 3 248
1874 NA NA 09:00:00 TS 30.65 -73.94 517 509 _____________P -1 30.65 -73.94 TS 32 3 249
1874 NA NA 12:00:00 TS 30.60 -74.10 509 501 _____________O -1 30.60 -74.10 TD 30 3 252
1874 NA NA 15:00:00 TS 30.55 -74.30 501 501 _____________P -1 30.55 -74.30 TD 30 4 254
1874 NA NA 18:00:00 TS 30.50 -74.50 501 495 _____________O -1 30.50 -74.50 TD 30 3 252
1874 NA NA 21:00:00 TS 30.45 -74.66 498 492 _____________P -1 30.45 -74.66 TD 30 3 249
1874 NA NA 1874-08-28 00:00:00 TS 30.40 -74.80 492 487 _____________O -1 30.40 -74.80 TD 30 3 248
1874 NA NA 03:00:00 TS 30.35 -74.95 496 485 _____________P -1 30.35 -74.95 TD 30 3 249
1874 NA NA 06:00:00 TS 30.30 -75.10 485 480 _____________O -1 30.30 -75.10 TD 30 3 245
1874 NA NA 09:00:00 TS 30.23 -75.26 484 479 _____________P -1 30.23 -75.26 TD 30 3 249
1874 NA NA 12:00:00 TS 30.20 -75.40 479 465 _____________O -1 30.20 -75.40 TD 30 2 283
1874 NA NA 15:00:00 TS 30.28 -75.51 465 450 _____________P -1 30.28 -75.51 TD 30 3 319
1874 NA NA 18:00:00 TS 30.40 -75.60 450 441 _____________O -1 30.40 -75.60 TD 30 2 330
1874 NA NA 21:00:00 TS 30.48 -75.65 436 426 _____________P -1 30.48 -75.65 TD 30 2 335
1874 NA NA 1874-08-29 00:00:00 TS 30.60 -75.70 426 402 _____________O -1 30.60 -75.70 TD 30 3 337
1874 NA NA 03:00:00 TS 30.79 -75.80 402 378 _____________P -1 30.79 -75.80 TD 30 4 337
1874 NA NA 06:00:00 TS 31.00 -75.90 378 364 _____________O -1 31.00 -75.90 TD 30 4 331
1874 NA NA 09:00:00 TS 31.14 -76.03 364 345 _____________P -1 31.14 -76.03 TD 30 3 344
1874 NA NA 12:00:00 TS 31.30 -76.00 345 337 _____________O -1 31.30 -76.00 TD 30 5 42
1874 NA NA 15:00:00 TS 31.54 -75.63 349 340 _____________P -1 31.54 -75.63 TD 30 9 57
1874 NA NA 18:00:00 TS 31.80 -75.10 348 339 _____________O -1 31.80 -75.10 TD 30 10 58
1874 NA NA 21:00:00 TS 32.06 -74.65 339 334 _____________P -1 32.06 -74.65 TD 30 9 57
1874 NA NA 1874-08-30 00:00:00 TS 32.30 -74.20 341 339 _____________O -1 32.30 -74.20 TD 30 9 59
1874 NA NA 03:00:00 TS 32.51 -73.74 356 355 _____________P -1 32.51 -73.74 TD 30 9 62
1874 NA NA 06:00:00 TS 32.70 -73.30 369 369 _____________O -1 32.70 -73.30 TD 30 8 64
1874 NA NA 09:00:00 TS 32.86 -72.89 384 384 _____________P -1 32.86 -72.89 TD 30 7 66
1874 NA NA 12:00:00 TS 33.00 -72.50 408 _____________O -1 33.00 -72.50 TD 30 7 66